sensor_id;sensor_type;location;lat;lon;timestamp;P1;durP1;ratioP1;P2;durP2;ratioP2
44110;SDS011;29774;52.664;5.074;2023-02-08T00:00:41;22.05;;;15.65;;
44110;SDS011;29774;52.664;5.074;2023-02-08T00:03:07;21.83;;;14.68;;
44110;SDS011;29774;52.664;5.074;2023-02-08T00:05:32;21.10;;;14.20;;
44110;SDS011;29774;52.664;5.074;2023-02-08T00:07:58;20.38;;;14.57;;
44110;SDS011;29774;52.664;5.074;2023-02-08T00:10:24;18.70;;;13.90;;
44110;SDS011;29774;52.664;5.074;2023-02-08T00:12:49;19.13;;;13.68;;
44110;SDS011;29774;52.664;5.074;2023-02-08T00:15:16;19.02;;;13.45;;
44110;SDS011;29774;52.664;5.074;2023-02-08T00:17:42;19.30;;;13.25;;
44110;SDS011;29774;52.664;5.074;2023-02-08T00:20:07;16.75;;;12.52;;
44110;SDS011;29774;52.664;5.074;2023-02-08T00:22:34;21.52;;;13.20;;
44110;SDS011;29774;52.664;5.074;2023-02-08T00:24:59;18.67;;;13.15;;
44110;SDS011;29774;52.664;5.074;2023-02-08T00:27:25;19.00;;;13.43;;
44110;SDS011;29774;52.664;5.074;2023-02-08T00:29:51;19.33;;;13.40;;
44110;SDS011;29774;52.664;5.074;2023-02-08T00:32:16;17.88;;;12.88;;
44110;SDS011;29774;52.664;5.074;2023-02-08T00:34:42;19.63;;;14.07;;
44110;SDS011;29774;52.664;5.074;2023-02-08T00:37:07;18.95;;;13.20;;
44110;SDS011;29774;52.664;5.074;2023-02-08T00:39:33;17.65;;;12.82;;
44110;SDS011;29774;52.664;5.074;2023-02-08T00:41:59;19.05;;;13.60;;
44110;SDS011;29774;52.664;5.074;2023-02-08T00:44:24;17.20;;;13.02;;
44110;SDS011;29774;52.664;5.074;2023-02-08T00:46:50;20.20;;;14.30;;
44110;SDS011;29774;52.664;5.074;2023-02-08T00:49:16;18.52;;;12.77;;
44110;SDS011;29774;52.664;5.074;2023-02-08T00:51:41;16.63;;;12.70;;
44110;SDS011;29774;52.664;5.074;2023-02-08T00:54:11;18.98;;;12.80;;
44110;SDS011;29774;52.664;5.074;2023-02-08T00:56:44;17.63;;;12.70;;
44110;SDS011;29774;52.664;5.074;2023-02-08T00:59:10;18.73;;;12.88;;
44110;SDS011;29774;52.664;5.074;2023-02-08T01:01:36;18.42;;;13.20;;
44110;SDS011;29774;52.664;5.074;2023-02-08T01:04:02;19.08;;;13.30;;
44110;SDS011;29774;52.664;5.074;2023-02-08T01:06:28;21.50;;;13.98;;
44110;SDS011;29774;52.664;5.074;2023-02-08T01:08:54;18.65;;;13.30;;
44110;SDS011;29774;52.664;5.074;2023-02-08T01:11:20;20.02;;;13.82;;
44110;SDS011;29774;52.664;5.074;2023-02-08T01:13:49;20.30;;;13.23;;
44110;SDS011;29774;52.664;5.074;2023-02-08T01:16:18;19.45;;;13.70;;
44110;SDS011;29774;52.664;5.074;2023-02-08T01:18:47;17.88;;;12.82;;
44110;SDS011;29774;52.664;5.074;2023-02-08T01:21:15;18.17;;;13.30;;
44110;SDS011;29774;52.664;5.074;2023-02-08T01:23:42;16.35;;;12.82;;
44110;SDS011;29774;52.664;5.074;2023-02-08T01:26:09;19.08;;;14.23;;
44110;SDS011;29774;52.664;5.074;2023-02-08T01:28:36;17.23;;;12.45;;
44110;SDS011;29774;52.664;5.074;2023-02-08T01:31:09;16.10;;;11.55;;
44110;SDS011;29774;52.664;5.074;2023-02-08T01:33:40;17.45;;;12.32;;
44110;SDS011;29774;52.664;5.074;2023-02-08T01:36:06;16.05;;;12.25;;
44110;SDS011;29774;52.664;5.074;2023-02-08T01:38:33;20.58;;;13.18;;
44110;SDS011;29774;52.664;5.074;2023-02-08T01:40:59;16.90;;;12.27;;
44110;SDS011;29774;52.664;5.074;2023-02-08T01:43:27;16.50;;;12.00;;
44110;SDS011;29774;52.664;5.074;2023-02-08T01:45:55;18.35;;;11.95;;
44110;SDS011;29774;52.664;5.074;2023-02-08T01:51:15;17.38;;;12.20;;
44110;SDS011;29774;52.664;5.074;2023-02-08T01:53:44;16.60;;;11.82;;
44110;SDS011;29774;52.664;5.074;2023-02-08T01:56:14;15.32;;;11.63;;
44110;SDS011;29774;52.664;5.074;2023-02-08T01:58:46;15.57;;;11.68;;
44110;SDS011;29774;52.664;5.074;2023-02-08T02:01:17;17.52;;;11.38;;
44110;SDS011;29774;52.664;5.074;2023-02-08T02:03:43;15.70;;;11.15;;
44110;SDS011;29774;52.664;5.074;2023-02-08T02:06:10;14.80;;;11.70;;
44110;SDS011;29774;52.664;5.074;2023-02-08T02:08:47;15.23;;;11.25;;
44110;SDS011;29774;52.664;5.074;2023-02-08T02:11:17;15.20;;;11.20;;
44110;SDS011;29774;52.664;5.074;2023-02-08T02:13:44;16.65;;;10.35;;
44110;SDS011;29774;52.664;5.074;2023-02-08T02:16:11;14.27;;;11.00;;
44110;SDS011;29774;52.664;5.074;2023-02-08T02:18:37;14.50;;;11.43;;
44110;SDS011;29774;52.664;5.074;2023-02-08T02:21:07;13.00;;;10.45;;
44110;SDS011;29774;52.664;5.074;2023-02-08T02:46:02;15.73;;;11.02;;
44110;SDS011;29774;52.664;5.074;2023-02-08T02:51:26;15.73;;;11.63;;
44110;SDS011;29774;52.664;5.074;2023-02-08T02:53:54;12.65;;;10.07;;
44110;SDS011;29774;52.664;5.074;2023-02-08T02:56:43;14.18;;;10.70;;
44110;SDS011;29774;52.664;5.074;2023-02-08T02:59:12;15.90;;;10.82;;
44110;SDS011;29774;52.664;5.074;2023-02-08T03:01:39;14.43;;;10.48;;
44110;SDS011;29774;52.664;5.074;2023-02-08T03:07:04;13.40;;;11.13;;
44110;SDS011;29774;52.664;5.074;2023-02-08T03:09:48;12.63;;;10.25;;
44110;SDS011;29774;52.664;5.074;2023-02-08T03:24:27;13.82;;;10.95;;
44110;SDS011;29774;52.664;5.074;2023-02-08T03:30:02;12.90;;;9.30;;
44110;SDS011;29774;52.664;5.074;2023-02-08T03:37:40;12.50;;;9.98;;
44110;SDS011;29774;52.664;5.074;2023-02-08T03:40:21;12.65;;;10.75;;
44110;SDS011;29774;52.664;5.074;2023-02-08T03:42:51;12.45;;;10.02;;
44110;SDS011;29774;52.664;5.074;2023-02-08T03:45:37;13.50;;;10.50;;
44110;SDS011;29774;52.664;5.074;2023-02-08T03:48:07;11.68;;;9.70;;
44110;SDS011;29774;52.664;5.074;2023-02-08T03:50:35;12.48;;;9.73;;
44110;SDS011;29774;52.664;5.074;2023-02-08T03:53:04;15.70;;;11.93;;
44110;SDS011;29774;52.664;5.074;2023-02-08T03:55:32;13.65;;;11.10;;
44110;SDS011;29774;52.664;5.074;2023-02-08T03:58:15;12.50;;;10.27;;
44110;SDS011;29774;52.664;5.074;2023-02-08T04:00:50;14.18;;;10.70;;
44110;SDS011;29774;52.664;5.074;2023-02-08T04:03:21;13.10;;;10.60;;
44110;SDS011;29774;52.664;5.074;2023-02-08T04:05:50;13.70;;;10.45;;
44110;SDS011;29774;52.664;5.074;2023-02-08T04:08:16;14.05;;;9.95;;
44110;SDS011;29774;52.664;5.074;2023-02-08T04:10:42;11.50;;;9.57;;
44110;SDS011;29774;52.664;5.074;2023-02-08T04:13:09;11.40;;;9.57;;
44110;SDS011;29774;52.664;5.074;2023-02-08T04:15:35;12.80;;;9.60;;
44110;SDS011;29774;52.664;5.074;2023-02-08T04:18:00;11.40;;;9.32;;
44110;SDS011;29774;52.664;5.074;2023-02-08T04:20:26;11.75;;;9.52;;
44110;SDS011;29774;52.664;5.074;2023-02-08T04:22:51;11.07;;;9.30;;
44110;SDS011;29774;52.664;5.074;2023-02-08T04:25:17;13.98;;;10.13;;
44110;SDS011;29774;52.664;5.074;2023-02-08T04:27:43;16.90;;;10.25;;
44110;SDS011;29774;52.664;5.074;2023-02-08T04:30:09;9.77;;;8.55;;
44110;SDS011;29774;52.664;5.074;2023-02-08T04:32:35;11.77;;;9.95;;
44110;SDS011;29774;52.664;5.074;2023-02-08T04:35:00;10.75;;;8.98;;
44110;SDS011;29774;52.664;5.074;2023-02-08T04:37:26;11.55;;;9.13;;
44110;SDS011;29774;52.664;5.074;2023-02-08T04:39:52;11.02;;;8.68;;
44110;SDS011;29774;52.664;5.074;2023-02-08T04:42:17;10.52;;;8.85;;
44110;SDS011;29774;52.664;5.074;2023-02-08T04:44:43;11.95;;;9.32;;
44110;SDS011;29774;52.664;5.074;2023-02-08T04:47:08;12.63;;;9.85;;
44110;SDS011;29774;52.664;5.074;2023-02-08T04:49:34;12.82;;;9.45;;
44110;SDS011;29774;52.664;5.074;2023-02-08T04:52:00;12.23;;;10.32;;
44110;SDS011;29774;52.664;5.074;2023-02-08T04:54:25;11.82;;;9.98;;
44110;SDS011;29774;52.664;5.074;2023-02-08T04:56:51;13.50;;;9.88;;
44110;SDS011;29774;52.664;5.074;2023-02-08T04:59:17;12.15;;;9.30;;
44110;SDS011;29774;52.664;5.074;2023-02-08T05:01:43;10.95;;;9.68;;
44110;SDS011;29774;52.664;5.074;2023-02-08T05:04:08;11.98;;;9.63;;
44110;SDS011;29774;52.664;5.074;2023-02-08T05:06:34;11.50;;;9.70;;
44110;SDS011;29774;52.664;5.074;2023-02-08T05:09:00;10.48;;;9.20;;
44110;SDS011;29774;52.664;5.074;2023-02-08T05:11:26;13.95;;;10.20;;
44110;SDS011;29774;52.664;5.074;2023-02-08T05:13:52;10.77;;;9.57;;
44110;SDS011;29774;52.664;5.074;2023-02-08T05:16:17;11.32;;;9.30;;
44110;SDS011;29774;52.664;5.074;2023-02-08T05:18:43;13.10;;;9.70;;
44110;SDS011;29774;52.664;5.074;2023-02-08T05:21:09;12.48;;;9.90;;
44110;SDS011;29774;52.664;5.074;2023-02-08T05:23:35;12.95;;;9.80;;
44110;SDS011;29774;52.664;5.074;2023-02-08T05:26:05;11.65;;;9.23;;
44110;SDS011;29774;52.664;5.074;2023-02-08T05:28:32;10.98;;;9.00;;
44110;SDS011;29774;52.664;5.074;2023-02-08T05:30:58;11.65;;;9.60;;
44110;SDS011;29774;52.664;5.074;2023-02-08T05:33:24;12.98;;;10.38;;
44110;SDS011;29774;52.664;5.074;2023-02-08T05:35:49;12.23;;;9.50;;
44110;SDS011;29774;52.664;5.074;2023-02-08T05:38:15;12.10;;;9.38;;
44110;SDS011;29774;52.664;5.074;2023-02-08T05:40:40;11.55;;;9.25;;
44110;SDS011;29774;52.664;5.074;2023-02-08T05:43:06;14.23;;;9.68;;
44110;SDS011;29774;52.664;5.074;2023-02-08T05:45:31;11.07;;;9.02;;
44110;SDS011;29774;52.664;5.074;2023-02-08T05:47:57;13.50;;;9.73;;
44110;SDS011;29774;52.664;5.074;2023-02-08T05:50:23;11.68;;;9.68;;
44110;SDS011;29774;52.664;5.074;2023-02-08T05:52:48;11.48;;;9.13;;
44110;SDS011;29774;52.664;5.074;2023-02-08T05:55:14;11.63;;;9.75;;
44110;SDS011;29774;52.664;5.074;2023-02-08T05:57:40;12.18;;;10.30;;
44110;SDS011;29774;52.664;5.074;2023-02-08T06:00:05;10.77;;;9.27;;
44110;SDS011;29774;52.664;5.074;2023-02-08T06:02:31;10.85;;;9.73;;
44110;SDS011;29774;52.664;5.074;2023-02-08T06:04:58;12.00;;;9.65;;
44110;SDS011;29774;52.664;5.074;2023-02-08T06:07:23;11.85;;;8.77;;
44110;SDS011;29774;52.664;5.074;2023-02-08T06:09:49;10.95;;;9.70;;
44110;SDS011;29774;52.664;5.074;2023-02-08T06:12:15;12.00;;;10.15;;
44110;SDS011;29774;52.664;5.074;2023-02-08T06:14:40;11.63;;;9.27;;
44110;SDS011;29774;52.664;5.074;2023-02-08T06:17:06;11.50;;;8.82;;
44110;SDS011;29774;52.664;5.074;2023-02-08T06:19:31;12.02;;;9.23;;
44110;SDS011;29774;52.664;5.074;2023-02-08T06:21:57;11.57;;;9.55;;
44110;SDS011;29774;52.664;5.074;2023-02-08T06:24:22;11.57;;;9.07;;
44110;SDS011;29774;52.664;5.074;2023-02-08T06:26:49;12.55;;;10.20;;
44110;SDS011;29774;52.664;5.074;2023-02-08T06:29:14;11.65;;;9.07;;
44110;SDS011;29774;52.664;5.074;2023-02-08T06:31:40;15.13;;;9.45;;
44110;SDS011;29774;52.664;5.074;2023-02-08T06:34:06;11.20;;;8.82;;
44110;SDS011;29774;52.664;5.074;2023-02-08T06:36:31;12.05;;;8.60;;
44110;SDS011;29774;52.664;5.074;2023-02-08T06:38:57;11.32;;;8.88;;
44110;SDS011;29774;52.664;5.074;2023-02-08T06:41:23;10.82;;;8.52;;
44110;SDS011;29774;52.664;5.074;2023-02-08T06:43:49;13.43;;;9.52;;
44110;SDS011;29774;52.664;5.074;2023-02-08T06:46:15;11.02;;;8.98;;
44110;SDS011;29774;52.664;5.074;2023-02-08T06:48:40;12.20;;;8.75;;
44110;SDS011;29774;52.664;5.074;2023-02-08T06:51:07;12.48;;;9.40;;
44110;SDS011;29774;52.664;5.074;2023-02-08T06:53:32;11.77;;;8.10;;
44110;SDS011;29774;52.664;5.074;2023-02-08T06:55:58;10.63;;;8.27;;
44110;SDS011;29774;52.664;5.074;2023-02-08T06:58:24;10.88;;;9.05;;
44110;SDS011;29774;52.664;5.074;2023-02-08T07:00:49;10.18;;;8.38;;
44110;SDS011;29774;52.664;5.074;2023-02-08T07:03:15;11.02;;;8.25;;
44110;SDS011;29774;52.664;5.074;2023-02-08T07:05:44;9.00;;;7.93;;
44110;SDS011;29774;52.664;5.074;2023-02-08T07:08:09;10.82;;;8.15;;
44110;SDS011;29774;52.664;5.074;2023-02-08T07:10:36;12.20;;;8.45;;
44110;SDS011;29774;52.664;5.074;2023-02-08T07:13:04;10.05;;;7.65;;
44110;SDS011;29774;52.664;5.074;2023-02-08T07:15:30;12.00;;;8.27;;
44110;SDS011;29774;52.664;5.074;2023-02-08T07:17:56;10.35;;;7.82;;
44110;SDS011;29774;52.664;5.074;2023-02-08T07:20:21;11.30;;;8.55;;
44110;SDS011;29774;52.664;5.074;2023-02-08T07:22:47;11.93;;;7.88;;
44110;SDS011;29774;52.664;5.074;2023-02-08T07:25:12;11.07;;;8.80;;
44110;SDS011;29774;52.664;5.074;2023-02-08T07:27:38;11.55;;;8.27;;
44110;SDS011;29774;52.664;5.074;2023-02-08T07:30:04;11.48;;;7.80;;
44110;SDS011;29774;52.664;5.074;2023-02-08T07:32:32;11.93;;;8.73;;
44110;SDS011;29774;52.664;5.074;2023-02-08T07:34:58;10.32;;;7.65;;
44110;SDS011;29774;52.664;5.074;2023-02-08T07:37:24;14.52;;;8.15;;
44110;SDS011;29774;52.664;5.074;2023-02-08T07:39:50;10.43;;;7.25;;
44110;SDS011;29774;52.664;5.074;2023-02-08T07:42:15;10.63;;;8.27;;
44110;SDS011;29774;52.664;5.074;2023-02-08T07:44:41;9.50;;;8.30;;
44110;SDS011;29774;52.664;5.074;2023-02-08T07:47:07;14.75;;;8.68;;
44110;SDS011;29774;52.664;5.074;2023-02-08T07:49:33;10.45;;;7.82;;
44110;SDS011;29774;52.664;5.074;2023-02-08T07:51:59;11.68;;;8.35;;
44110;SDS011;29774;52.664;5.074;2023-02-08T07:54:26;12.82;;;8.13;;
44110;SDS011;29774;52.664;5.074;2023-02-08T07:56:51;10.25;;;7.97;;
44110;SDS011;29774;52.664;5.074;2023-02-08T07:59:17;12.43;;;8.45;;
44110;SDS011;29774;52.664;5.074;2023-02-08T08:01:43;10.07;;;7.78;;
44110;SDS011;29774;52.664;5.074;2023-02-08T08:04:08;9.93;;;7.60;;
44110;SDS011;29774;52.664;5.074;2023-02-08T08:06:34;9.55;;;7.97;;
44110;SDS011;29774;52.664;5.074;2023-02-08T08:09:00;11.15;;;7.78;;
44110;SDS011;29774;52.664;5.074;2023-02-08T08:11:25;12.15;;;8.13;;
44110;SDS011;29774;52.664;5.074;2023-02-08T08:13:52;11.55;;;7.75;;
44110;SDS011;29774;52.664;5.074;2023-02-08T08:16:18;11.18;;;8.27;;
44110;SDS011;29774;52.664;5.074;2023-02-08T08:18:44;11.05;;;7.85;;
44110;SDS011;29774;52.664;5.074;2023-02-08T08:21:10;10.15;;;7.40;;
44110;SDS011;29774;52.664;5.074;2023-02-08T08:23:36;13.60;;;8.55;;
44110;SDS011;29774;52.664;5.074;2023-02-08T08:26:06;13.95;;;8.00;;
44110;SDS011;29774;52.664;5.074;2023-02-08T08:28:50;12.85;;;8.75;;
44110;SDS011;29774;52.664;5.074;2023-02-08T08:31:16;10.23;;;8.23;;
44110;SDS011;29774;52.664;5.074;2023-02-08T08:33:44;11.88;;;8.30;;
44110;SDS011;29774;52.664;5.074;2023-02-08T08:36:10;10.45;;;8.40;;
44110;SDS011;29774;52.664;5.074;2023-02-08T08:38:36;13.15;;;8.95;;
44110;SDS011;29774;52.664;5.074;2023-02-08T08:41:06;13.52;;;9.15;;
44110;SDS011;29774;52.664;5.074;2023-02-08T08:43:36;9.93;;;7.57;;
44110;SDS011;29774;52.664;5.074;2023-02-08T08:46:04;12.30;;;9.38;;
44110;SDS011;29774;52.664;5.074;2023-02-08T08:48:31;12.35;;;8.25;;
44110;SDS011;29774;52.664;5.074;2023-02-08T08:50:57;12.15;;;9.07;;
44110;SDS011;29774;52.664;5.074;2023-02-08T08:53:23;11.73;;;8.38;;
44110;SDS011;29774;52.664;5.074;2023-02-08T08:55:49;11.00;;;8.55;;
44110;SDS011;29774;52.664;5.074;2023-02-08T08:58:15;11.60;;;7.68;;
44110;SDS011;29774;52.664;5.074;2023-02-08T09:00:41;11.35;;;8.13;;
44110;SDS011;29774;52.664;5.074;2023-02-08T09:03:06;12.52;;;9.38;;
44110;SDS011;29774;52.664;5.074;2023-02-08T09:05:32;10.38;;;8.20;;
44110;SDS011;29774;52.664;5.074;2023-02-08T09:07:59;11.70;;;8.32;;
44110;SDS011;29774;52.664;5.074;2023-02-08T09:10:25;11.73;;;8.82;;
44110;SDS011;29774;52.664;5.074;2023-02-08T09:12:51;11.18;;;8.75;;
44110;SDS011;29774;52.664;5.074;2023-02-08T09:15:17;9.73;;;6.63;;
44110;SDS011;29774;52.664;5.074;2023-02-08T09:17:42;12.48;;;8.52;;
44110;SDS011;29774;52.664;5.074;2023-02-08T09:20:08;12.35;;;8.55;;
44110;SDS011;29774;52.664;5.074;2023-02-08T09:22:34;11.02;;;8.18;;
44110;SDS011;29774;52.664;5.074;2023-02-08T09:25:00;11.15;;;8.05;;
44110;SDS011;29774;52.664;5.074;2023-02-08T09:27:26;13.55;;;9.18;;
44110;SDS011;29774;52.664;5.074;2023-02-08T09:29:53;9.30;;;7.30;;
44110;SDS011;29774;52.664;5.074;2023-02-08T09:32:19;11.25;;;8.32;;
44110;SDS011;29774;52.664;5.074;2023-02-08T09:34:45;13.93;;;8.70;;
44110;SDS011;29774;52.664;5.074;2023-02-08T09:37:11;10.05;;;8.05;;
44110;SDS011;29774;52.664;5.074;2023-02-08T09:39:37;10.07;;;7.93;;
44110;SDS011;29774;52.664;5.074;2023-02-08T09:44:32;13.25;;;9.35;;
44110;SDS011;29774;52.664;5.074;2023-02-08T09:47:30;11.82;;;8.43;;
44110;SDS011;29774;52.664;5.074;2023-02-08T09:50:12;10.70;;;8.38;;
44110;SDS011;29774;52.664;5.074;2023-02-08T09:53:04;13.88;;;8.27;;
44110;SDS011;29774;52.664;5.074;2023-02-08T09:55:52;11.90;;;7.97;;
44110;SDS011;29774;52.664;5.074;2023-02-08T10:01:02;10.23;;;8.15;;
44110;SDS011;29774;52.664;5.074;2023-02-08T10:03:38;10.52;;;7.93;;
44110;SDS011;29774;52.664;5.074;2023-02-08T10:06:08;10.30;;;7.40;;
44110;SDS011;29774;52.664;5.074;2023-02-08T10:08:37;11.45;;;8.68;;
44110;SDS011;29774;52.664;5.074;2023-02-08T10:16:58;10.88;;;8.70;;
44110;SDS011;29774;52.664;5.074;2023-02-08T10:37:11;13.48;;;9.05;;
44110;SDS011;29774;52.664;5.074;2023-02-08T10:39:44;11.57;;;8.65;;
44110;SDS011;29774;52.664;5.074;2023-02-08T10:42:12;12.07;;;7.63;;
44110;SDS011;29774;52.664;5.074;2023-02-08T10:44:52;11.77;;;8.13;;
44110;SDS011;29774;52.664;5.074;2023-02-08T10:50:50;10.70;;;8.20;;
44110;SDS011;29774;52.664;5.074;2023-02-08T10:53:02;12.63;;;8.75;;
44110;SDS011;29774;52.664;5.074;2023-02-08T10:55:29;12.40;;;8.90;;
44110;SDS011;29774;52.664;5.074;2023-02-08T10:57:57;11.10;;;9.02;;
44110;SDS011;29774;52.664;5.074;2023-02-08T11:00:26;13.82;;;7.70;;
44110;SDS011;29774;52.664;5.074;2023-02-08T11:02:55;11.18;;;8.95;;
44110;SDS011;29774;52.664;5.074;2023-02-08T11:10:36;11.68;;;9.20;;
44110;SDS011;29774;52.664;5.074;2023-02-08T11:13:14;12.73;;;9.93;;
44110;SDS011;29774;52.664;5.074;2023-02-08T11:18:18;13.75;;;8.95;;
44110;SDS011;29774;52.664;5.074;2023-02-08T11:20:49;12.65;;;8.65;;
44110;SDS011;29774;52.664;5.074;2023-02-08T11:23:21;11.70;;;8.60;;
44110;SDS011;29774;52.664;5.074;2023-02-08T11:25:50;11.77;;;7.32;;
44110;SDS011;29774;52.664;5.074;2023-02-08T11:28:24;10.63;;;7.00;;
44110;SDS011;29774;52.664;5.074;2023-02-08T11:31:00;11.85;;;8.77;;
44110;SDS011;29774;52.664;5.074;2023-02-08T11:33:32;13.15;;;9.23;;
44110;SDS011;29774;52.664;5.074;2023-02-08T11:35:59;11.60;;;8.50;;
44110;SDS011;29774;52.664;5.074;2023-02-08T11:38:31;13.60;;;9.55;;
44110;SDS011;29774;52.664;5.074;2023-02-08T11:40:59;12.88;;;8.85;;
44110;SDS011;29774;52.664;5.074;2023-02-08T11:43:29;13.40;;;8.43;;
44110;SDS011;29774;52.664;5.074;2023-02-08T11:45:57;11.88;;;8.07;;
44110;SDS011;29774;52.664;5.074;2023-02-08T11:48:26;11.15;;;8.00;;
44110;SDS011;29774;52.664;5.074;2023-02-08T11:51:22;9.05;;;6.50;;
44110;SDS011;29774;52.664;5.074;2023-02-08T11:53:56;8.40;;;7.05;;
44110;SDS011;29774;52.664;5.074;2023-02-08T11:56:25;11.70;;;8.25;;
44110;SDS011;29774;52.664;5.074;2023-02-08T11:58:57;13.60;;;9.63;;
44110;SDS011;29774;52.664;5.074;2023-02-08T12:01:40;10.20;;;7.80;;
44110;SDS011;29774;52.664;5.074;2023-02-08T12:04:09;11.52;;;8.25;;
44110;SDS011;29774;52.664;5.074;2023-02-08T12:12:11;9.77;;;8.18;;
44110;SDS011;29774;52.664;5.074;2023-02-08T12:20:37;12.32;;;7.85;;
44110;SDS011;29774;52.664;5.074;2023-02-08T12:34:34;9.80;;;7.82;;
44110;SDS011;29774;52.664;5.074;2023-02-08T12:49:04;10.77;;;7.55;;
44110;SDS011;29774;52.664;5.074;2023-02-08T12:54:41;12.43;;;8.23;;
44110;SDS011;29774;52.664;5.074;2023-02-08T12:57:13;10.75;;;8.27;;
44110;SDS011;29774;52.664;5.074;2023-02-08T12:59:43;12.63;;;8.75;;
44110;SDS011;29774;52.664;5.074;2023-02-08T13:04:51;12.82;;;7.82;;
44110;SDS011;29774;52.664;5.074;2023-02-08T13:07:33;10.88;;;8.45;;
44110;SDS011;29774;52.664;5.074;2023-02-08T13:12:53;12.73;;;8.25;;
44110;SDS011;29774;52.664;5.074;2023-02-08T13:15:29;10.70;;;8.02;;
44110;SDS011;29774;52.664;5.074;2023-02-08T13:17:57;11.75;;;8.35;;
44110;SDS011;29774;52.664;5.074;2023-02-08T13:20:43;12.25;;;8.63;;
44110;SDS011;29774;52.664;5.074;2023-02-08T13:23:35;12.00;;;7.78;;
44110;SDS011;29774;52.664;5.074;2023-02-08T13:26:02;11.38;;;7.93;;
44110;SDS011;29774;52.664;5.074;2023-02-08T13:28:33;14.43;;;8.60;;
44110;SDS011;29774;52.664;5.074;2023-02-08T13:31:11;11.43;;;8.73;;
44110;SDS011;29774;52.664;5.074;2023-02-08T13:33:50;10.43;;;7.72;;
44110;SDS011;29774;52.664;5.074;2023-02-08T13:36:20;14.90;;;9.02;;
44110;SDS011;29774;52.664;5.074;2023-02-08T13:38:53;12.70;;;9.32;;
44110;SDS011;29774;52.664;5.074;2023-02-08T13:41:21;13.15;;;9.35;;
44110;SDS011;29774;52.664;5.074;2023-02-08T13:46:15;12.93;;;8.45;;
44110;SDS011;29774;52.664;5.074;2023-02-08T13:49:04;12.77;;;9.43;;
44110;SDS011;29774;52.664;5.074;2023-02-08T13:56:41;12.05;;;9.55;;
44110;SDS011;29774;52.664;5.074;2023-02-08T13:59:33;11.65;;;9.13;;
44110;SDS011;29774;52.664;5.074;2023-02-08T14:04:42;13.55;;;9.63;;
44110;SDS011;29774;52.664;5.074;2023-02-08T14:09:53;14.63;;;9.63;;
44110;SDS011;29774;52.664;5.074;2023-02-08T14:15:45;13.38;;;8.60;;
44110;SDS011;29774;52.664;5.074;2023-02-08T14:18:29;13.73;;;9.45;;
44110;SDS011;29774;52.664;5.074;2023-02-08T14:21:00;12.25;;;8.77;;
44110;SDS011;29774;52.664;5.074;2023-02-08T14:23:30;12.63;;;8.68;;
44110;SDS011;29774;52.664;5.074;2023-02-08T14:26:01;11.68;;;8.02;;
44110;SDS011;29774;52.664;5.074;2023-02-08T14:31:00;12.38;;;8.90;;
44110;SDS011;29774;52.664;5.074;2023-02-08T14:33:29;13.75;;;9.43;;
44110;SDS011;29774;52.664;5.074;2023-02-08T14:35:59;10.75;;;7.95;;
44110;SDS011;29774;52.664;5.074;2023-02-08T14:38:32;12.38;;;8.73;;
44110;SDS011;29774;52.664;5.074;2023-02-08T14:45:16;12.88;;;8.50;;
44110;SDS011;29774;52.664;5.074;2023-02-08T14:52:36;10.13;;;8.52;;
44110;SDS011;29774;52.664;5.074;2023-02-08T14:55:07;11.63;;;8.10;;
44110;SDS011;29774;52.664;5.074;2023-02-08T14:57:41;10.23;;;7.38;;
44110;SDS011;29774;52.664;5.074;2023-02-08T15:00:18;9.63;;;7.63;;
44110;SDS011;29774;52.664;5.074;2023-02-08T15:02:46;11.20;;;8.10;;
44110;SDS011;29774;52.664;5.074;2023-02-08T15:08:10;9.82;;;7.57;;
44110;SDS011;29774;52.664;5.074;2023-02-08T15:10:39;10.57;;;7.60;;
44110;SDS011;29774;52.664;5.074;2023-02-08T15:13:11;8.88;;;6.75;;
44110;SDS011;29774;52.664;5.074;2023-02-08T15:15:43;9.40;;;7.05;;
44110;SDS011;29774;52.664;5.074;2023-02-08T15:18:20;7.07;;;6.28;;
44110;SDS011;29774;52.664;5.074;2023-02-08T15:20:57;12.45;;;6.65;;
44110;SDS011;29774;52.664;5.074;2023-02-08T15:23:28;8.30;;;6.22;;
44110;SDS011;29774;52.664;5.074;2023-02-08T15:28:24;7.30;;;5.63;;
44110;SDS011;29774;52.664;5.074;2023-02-08T15:30:57;8.15;;;5.78;;
44110;SDS011;29774;52.664;5.074;2023-02-08T15:33:25;10.25;;;6.30;;
44110;SDS011;29774;52.664;5.074;2023-02-08T15:36:33;9.07;;;6.05;;
44110;SDS011;29774;52.664;5.074;2023-02-08T15:38:44;8.48;;;5.78;;
44110;SDS011;29774;52.664;5.074;2023-02-08T15:41:15;9.75;;;5.93;;
44110;SDS011;29774;52.664;5.074;2023-02-08T15:46:49;6.72;;;5.50;;
44110;SDS011;29774;52.664;5.074;2023-02-08T15:49:17;7.70;;;5.20;;
44110;SDS011;29774;52.664;5.074;2023-02-08T15:51:50;6.70;;;5.80;;
44110;SDS011;29774;52.664;5.074;2023-02-08T15:54:20;8.55;;;5.25;;
44110;SDS011;29774;52.664;5.074;2023-02-08T15:56:48;7.47;;;4.95;;
44110;SDS011;29774;52.664;5.074;2023-02-08T15:59:30;9.90;;;5.22;;
44110;SDS011;29774;52.664;5.074;2023-02-08T16:02:03;5.72;;;5.18;;
44110;SDS011;29774;52.664;5.074;2023-02-08T16:04:48;6.60;;;5.07;;
44110;SDS011;29774;52.664;5.074;2023-02-08T16:07:33;6.80;;;5.22;;
44110;SDS011;29774;52.664;5.074;2023-02-08T16:10:02;9.75;;;5.15;;
44110;SDS011;29774;52.664;5.074;2023-02-08T16:12:29;6.47;;;4.63;;
44110;SDS011;29774;52.664;5.074;2023-02-08T16:14:56;5.78;;;4.35;;
44110;SDS011;29774;52.664;5.074;2023-02-08T16:17:41;7.55;;;4.90;;
44110;SDS011;29774;52.664;5.074;2023-02-08T16:20:22;5.32;;;4.55;;
44110;SDS011;29774;52.664;5.074;2023-02-08T16:22:53;7.65;;;4.65;;
44110;SDS011;29774;52.664;5.074;2023-02-08T16:28:23;5.13;;;4.03;;
44110;SDS011;29774;52.664;5.074;2023-02-08T16:30:54;6.47;;;4.57;;
44110;SDS011;29774;52.664;5.074;2023-02-08T16:33:22;7.60;;;4.88;;
44110;SDS011;29774;52.664;5.074;2023-02-08T16:35:49;7.38;;;5.07;;
44110;SDS011;29774;52.664;5.074;2023-02-08T16:38:19;8.90;;;5.65;;
44110;SDS011;29774;52.664;5.074;2023-02-08T16:40:53;5.85;;;4.78;;
44110;SDS011;29774;52.664;5.074;2023-02-08T16:43:30;10.40;;;5.95;;
44110;SDS011;29774;52.664;5.074;2023-02-08T16:46:29;8.15;;;5.93;;
44110;SDS011;29774;52.664;5.074;2023-02-08T16:48:53;7.95;;;5.95;;
44110;SDS011;29774;52.664;5.074;2023-02-08T16:51:22;8.38;;;5.45;;
44110;SDS011;29774;52.664;5.074;2023-02-08T16:53:50;10.50;;;5.05;;
44110;SDS011;29774;52.664;5.074;2023-02-08T16:56:23;6.13;;;5.28;;
44110;SDS011;29774;52.664;5.074;2023-02-08T16:58:49;9.60;;;5.55;;
44110;SDS011;29774;52.664;5.074;2023-02-08T17:01:15;6.55;;;5.50;;
44110;SDS011;29774;52.664;5.074;2023-02-08T17:03:41;7.60;;;5.90;;
44110;SDS011;29774;52.664;5.074;2023-02-08T17:06:11;11.20;;;6.10;;
44110;SDS011;29774;52.664;5.074;2023-02-08T17:08:46;8.15;;;6.30;;
44110;SDS011;29774;52.664;5.074;2023-02-08T17:11:12;9.07;;;5.43;;
44110;SDS011;29774;52.664;5.074;2023-02-08T17:13:37;11.88;;;6.20;;
44110;SDS011;29774;52.664;5.074;2023-02-08T17:16:03;6.70;;;5.65;;
44110;SDS011;29774;52.664;5.074;2023-02-08T17:18:28;7.03;;;5.18;;
44110;SDS011;29774;52.664;5.074;2023-02-08T17:20:55;7.85;;;5.68;;
44110;SDS011;29774;52.664;5.074;2023-02-08T17:23:23;7.20;;;5.78;;
44110;SDS011;29774;52.664;5.074;2023-02-08T17:25:49;7.28;;;5.50;;
44110;SDS011;29774;52.664;5.074;2023-02-08T17:28:17;7.53;;;5.60;;
44110;SDS011;29774;52.664;5.074;2023-02-08T17:30:43;7.90;;;5.53;;
44110;SDS011;29774;52.664;5.074;2023-02-08T17:33:10;8.20;;;5.68;;
44110;SDS011;29774;52.664;5.074;2023-02-08T17:35:42;9.15;;;5.30;;
44110;SDS011;29774;52.664;5.074;2023-02-08T17:38:12;8.02;;;5.68;;